No particular awareness of the weather is required.    There are no Weather-warnings


Meteo18 Weather Cam more information Meteo18 Weather Cam


Thunder radar more information blitzortung!


Rain radar more information rain snow radar


Visit our other weather sites:

Template documentation
and downloads

And another site



Weather Underground History page Text

Daily Summary for October 14, 2017 Units:  Metric    English   Both
« Previous Day
Next Day »
Daily Weekly Monthly Yearly Custom
  High: Low: Average:
Temperature: 21.6 °C 9.8 °C 13.2 °C
Dew Point: 14.7 °C 9.3 °C 11.4 °C
Humidity: 97 % 63 % 90 %
Wind Speed: 6.4 km/h 0.0 km/h 0.5 km/h
Wind Gust: 8.0 km/h - -
Wind:- - SE
Pressure: 1028.0 hPa 1026.6 hPa -
Precipitation: 0.3 mm    
Historical Graphs
 
 
Tabular Data for October 14, 2017
Time Temperature Dew Point Pressure Wind Wind Speed Wind Gust Humidity Rainfall Rate (Hourly)
00:02 12.5 °C 11.6 °C 1027.3 hPa Calm   3.2 km/h 94 % 0.0 mm
00:12 12.5 °C 11.6 °C 1027.3 hPa Calm   1.6 km/h 94 % 0.0 mm
00:17 12.6 °C 11.8 °C 1027.3 hPa Calm   1.6 km/h 95 % 0.0 mm
00:22 12.7 °C 11.9 °C 1027.3 hPa Calm   1.6 km/h 95 % 0.0 mm
00:32 12.4 °C 11.5 °C 1027.3 hPa Calm     94 % 0.0 mm
00:42 12.3 °C 11.4 °C 1027.3 hPa Calm     94 % 0.0 mm
00:47 12.2 °C 11.3 °C 1027.3 hPa WNW 1.6 km/h 1.6 km/h 94 % 0.0 mm
00:52 12.1 °C 11.3 °C 1027.3 hPa Calm   1.6 km/h 95 % 0.0 mm
00:57 12.2 °C 11.4 °C 1027.3 hPa Calm   1.6 km/h 95 % 0.0 mm
01:02 12.1 °C 11.3 °C 1027.3 hPa Calm   1.6 km/h 95 % 0.0 mm
01:07 12.1 °C 11.3 °C 1027.3 hPa Calm   1.6 km/h 95 % 0.0 mm
01:12 12.0 °C 11.2 °C 1027.3 hPa Calm   1.6 km/h 95 % 0.0 mm
01:22 11.9 °C 11.1 °C 1027.3 hPa Calm   1.6 km/h 95 % 0.0 mm
01:32 12.0 °C 11.4 °C 1027.3 hPa Calm   1.6 km/h 96 % 0.0 mm
01:37 12.1 °C 11.5 °C 1027.3 hPa Calm   1.6 km/h 96 % 0.0 mm
01:42 11.8 °C 11.0 °C 1027.7 hPa Calm     95 % 0.0 mm
01:47 11.8 °C 11.0 °C 1027.3 hPa Calm     95 % 0.0 mm
01:52 11.8 °C 11.0 °C 1027.7 hPa Calm     95 % 0.0 mm
01:57 11.7 °C 10.9 °C 1027.3 hPa Calm     95 % 0.0 mm
02:02 11.6 °C 10.8 °C 1027.3 hPa Calm     95 % 0.0 mm
02:07 11.6 °C 10.8 °C 1027.3 hPa Calm     95 % 0.0 mm
02:12 11.4 °C 10.6 °C 1027.3 hPa Calm     95 % 0.0 mm
02:17 11.4 °C 10.8 °C 1027.3 hPa Calm     96 % 0.0 mm
02:22 11.6 °C 11.0 °C 1027.3 hPa Calm     96 % 0.0 mm
02:32 11.4 °C 10.6 °C 1027.3 hPa Calm     95 % 0.0 mm
02:37 11.3 °C 10.7 °C 1027.7 hPa Calm     96 % 0.0 mm
02:42 11.5 °C 10.9 °C 1027.7 hPa Calm     96 % 0.0 mm
02:47 11.5 °C 10.9 °C 1027.3 hPa Calm     96 % 0.0 mm
02:52 11.3 °C 10.5 °C 1027.3 hPa Calm     95 % 0.0 mm
02:57 11.2 °C 10.6 °C 1027.7 hPa Calm     96 % 0.0 mm
03:02 11.2 °C 10.6 °C 1027.7 hPa Calm     96 % 0.0 mm
03:12 11.3 °C 10.7 °C 1027.3 hPa Calm     96 % 0.0 mm
03:17 11.1 °C 10.5 °C 1027.3 hPa Calm     96 % 0.0 mm
03:22 11.0 °C 10.4 °C 1027.3 hPa Calm     96 % 0.0 mm
03:27 11.2 °C 10.7 °C 1027.3 hPa Calm     97 % 0.0 mm
03:32 11.3 °C 10.8 °C 1027.3 hPa Calm   1.6 km/h 97 % 0.0 mm
03:37 11.3 °C 10.7 °C 1027.3 hPa Calm   1.6 km/h 96 % 0.0 mm
03:42 11.3 °C 10.7 °C 1027.3 hPa Calm   1.6 km/h 96 % 0.0 mm
03:52 11.1 °C 10.5 °C 1027.0 hPa Calm     96 % 0.0 mm
03:57 10.9 °C 10.3 °C 1027.0 hPa Calm     96 % 0.0 mm
04:02 11.2 °C 10.7 °C 1027.0 hPa Calm     97 % 0.0 mm
04:07 11.2 °C 10.6 °C 1027.0 hPa Calm     96 % 0.0 mm
04:12 11.2 °C 10.6 °C 1027.0 hPa Calm     96 % 0.0 mm
04:17 11.0 °C 10.4 °C 1027.0 hPa Calm     96 % 0.0 mm
04:22 10.9 °C 10.3 °C 1027.0 hPa Calm     96 % 0.0 mm
04:32 10.7 °C 10.1 °C 1027.0 hPa Calm     96 % 0.0 mm
04:42 10.8 °C 10.2 °C 1027.0 hPa Calm     96 % 0.0 mm
04:47 10.8 °C 10.2 °C 1027.0 hPa Calm     96 % 0.0 mm
04:52 10.7 °C 10.1 °C 1027.0 hPa Calm     96 % 0.0 mm
04:57 10.6 °C 10.0 °C 1027.0 hPa Calm     96 % 0.0 mm
05:02 10.6 °C 10.0 °C 1027.0 hPa Calm     96 % 0.0 mm
05:12 10.3 °C 9.7 °C 1027.0 hPa Calm     96 % 0.0 mm
05:22 10.0 °C 9.4 °C 1027.0 hPa Calm     96 % 0.0 mm
05:42 10.2 °C 9.6 °C 1027.0 hPa Calm     96 % 0.0 mm
05:47 10.2 °C 9.6 °C 1027.0 hPa Calm     96 % 0.0 mm
05:52 10.1 °C 9.5 °C 1026.6 hPa Calm     96 % 0.0 mm
05:57 10.2 °C 9.7 °C 1026.6 hPa Calm     97 % 0.0 mm
06:02 9.9 °C 9.3 °C 1026.6 hPa Calm     96 % 0.0 mm
06:12 9.8 °C 9.3 °C 1027.0 hPa Calm     97 % 0.0 mm
06:17 9.8 °C 9.3 °C 1027.0 hPa Calm     97 % 0.0 mm
06:22 10.0 °C 9.5 °C 1027.0 hPa Calm     97 % 0.0 mm
06:32 10.2 °C 9.7 °C 1027.0 hPa Calm     97 % 0.0 mm
06:42 10.1 °C 9.6 °C 1027.0 hPa Calm     97 % 0.0 mm
06:47 10.1 °C 9.6 °C 1027.0 hPa Calm     97 % 0.0 mm
06:52 10.2 °C 9.7 °C 1027.0 hPa Calm     97 % 0.0 mm
07:02 10.2 °C 9.7 °C 1027.0 hPa Calm     97 % 0.0 mm
07:07 10.2 °C 9.7 °C 1027.0 hPa Calm     97 % 0.0 mm
07:12 10.2 °C 9.7 °C 1027.0 hPa Calm     97 % 0.0 mm
07:17 10.1 °C 9.6 °C 1027.0 hPa Calm     97 % 0.3 mm
07:27 10.4 °C 9.9 °C 1027.0 hPa Calm     97 % 0.3 mm
07:32 10.8 °C 10.3 °C 1027.0 hPa Calm     97 % 0.3 mm
07:42 10.6 °C 10.1 °C 1027.0 hPa Calm     97 % 0.3 mm
07:47 10.6 °C 10.1 °C 1027.0 hPa Calm     97 % 0.3 mm
07:52 10.4 °C 9.9 °C 1027.0 hPa Calm     97 % 0.3 mm
08:02 10.8 °C 10.3 °C 1027.0 hPa Calm     97 % 0.3 mm
08:12 10.5 °C 10.0 °C 1027.0 hPa Calm     97 % 0.3 mm
08:17 10.5 °C 10.0 °C 1027.3 hPa Calm     97 % 0.0 mm
08:22 10.7 °C 10.2 °C 1027.3 hPa Calm     97 % 0.0 mm
08:27 10.7 °C 10.2 °C 1027.3 hPa Calm     97 % 0.0 mm
08:32 10.7 °C 10.2 °C 1027.3 hPa Calm     97 % 0.0 mm
08:42 11.0 °C 10.5 °C 1027.3 hPa Calm     97 % 0.0 mm
08:47 10.8 °C 10.3 °C 1027.3 hPa Calm     97 % 0.0 mm
08:52 10.7 °C 10.2 °C 1027.3 hPa Calm     97 % 0.0 mm
08:57 10.8 °C 10.3 °C 1027.3 hPa Calm     97 % 0.0 mm
09:02 10.9 °C 10.4 °C 1027.7 hPa Calm     97 % 0.0 mm
09:12 11.5 °C 11.0 °C 1027.7 hPa Calm     97 % 0.0 mm
09:17 11.8 °C 11.3 °C 1027.7 hPa Calm     97 % 0.0 mm
09:22 12.0 °C 11.5 °C 1027.7 hPa Calm     97 % 0.0 mm
09:32 12.7 °C 12.2 °C 1027.7 hPa Calm     97 % 0.0 mm
09:37 12.8 °C 12.2 °C 1027.7 hPa Calm     96 % 0.0 mm
09:42 12.8 °C 12.2 °C 1027.7 hPa Calm     96 % 0.0 mm
09:47 13.0 °C 12.4 °C 1027.7 hPa Calm     96 % 0.0 mm
09:52 13.4 °C 12.8 °C 1027.7 hPa Calm     96 % 0.0 mm
10:02 13.8 °C 13.0 °C 1027.7 hPa Calm     95 % 0.0 mm
10:07 14.0 °C 12.9 °C 1027.7 hPa Calm     93 % 0.0 mm
10:12 14.2 °C 12.9 °C 1027.7 hPa Calm     92 % 0.0 mm
10:17 14.3 °C 12.9 °C 1027.7 hPa Calm   3.2 km/h 91 % 0.0 mm
10:22 14.8 °C 13.0 °C 1027.7 hPa Calm   3.2 km/h 89 % 0.0 mm
10:27 14.9 °C 12.8 °C 1027.7 hPa Calm   3.2 km/h 87 % 0.0 mm
10:32 15.0 °C 12.7 °C 1027.7 hPa Calm   3.2 km/h 86 % 0.0 mm
10:37 15.2 °C 12.5 °C 1027.7 hPa Calm   6.4 km/h 84 % 0.0 mm
10:42 15.4 °C 12.7 °C 1027.7 hPa South 1.6 km/h 6.4 km/h 84 % 0.0 mm
10:52 15.8 °C 12.5 °C 1028.0 hPa South 1.6 km/h 6.4 km/h 81 % 0.0 mm
10:57 15.8 °C 12.4 °C 1028.0 hPa SW 1.6 km/h 6.4 km/h 80 % 0.0 mm
11:02 15.9 °C 12.6 °C 1027.7 hPa SE 1.6 km/h 6.4 km/h 81 % 0.0 mm
11:12 16.2 °C 12.6 °C 1027.7 hPa Calm   6.4 km/h 79 % 0.0 mm
11:17 16.1 °C 12.5 °C 1028.0 hPa Calm   3.2 km/h 79 % 0.0 mm
11:22 16.2 °C 12.7 °C 1027.7 hPa SSE 3.2 km/h 3.2 km/h 80 % 0.0 mm
11:32 16.6 °C 12.9 °C 1027.7 hPa Calm   8.0 km/h 79 % 0.0 mm
11:37 16.8 °C 12.7 °C 1027.7 hPa SW 4.8 km/h 8.0 km/h 77 % 0.0 mm
11:47 16.9 °C 12.8 °C 1027.7 hPa SW 1.6 km/h 6.4 km/h 77 % 0.0 mm
11:57 17.2 °C 13.1 °C 1027.7 hPa South 1.6 km/h 6.4 km/h 77 % 0.0 mm
12:02 17.6 °C 13.5 °C 1027.7 hPa Calm   6.4 km/h 77 % 0.0 mm
12:12 17.4 °C 12.9 °C 1027.7 hPa NE 3.2 km/h 4.8 km/h 75 % 0.0 mm
12:17 17.6 °C 13.5 °C 1027.7 hPa Calm   6.4 km/h 77 % 0.0 mm
12:22 17.8 °C 13.5 °C 1027.7 hPa Calm   6.4 km/h 76 % 0.0 mm
12:32 18.5 °C 13.8 °C 1027.3 hPa Calm   4.8 km/h 74 % 0.0 mm
12:37 18.8 °C 14.1 °C 1027.7 hPa SE 4.8 km/h 4.8 km/h 74 % 0.0 mm
12:42 19.1 °C 13.7 °C 1027.7 hPa Calm   3.2 km/h 71 % 0.0 mm
12:47 19.2 °C 13.8 °C 1027.7 hPa NE 1.6 km/h 3.2 km/h 71 % 0.0 mm
12:52 19.1 °C 13.9 °C 1027.3 hPa Calm   4.8 km/h 72 % 0.0 mm
12:57 19.0 °C 13.8 °C 1027.7 hPa ENE 1.6 km/h 4.8 km/h 72 % 0.0 mm
13:02 19.1 °C 14.1 °C 1027.3 hPa Calm   6.4 km/h 73 % 0.0 mm
13:12 19.9 °C 14.3 °C 1027.3 hPa ESE 1.6 km/h 6.4 km/h 70 % 0.0 mm
13:17 19.8 °C 13.9 °C 1027.3 hPa Calm   6.4 km/h 69 % 0.0 mm
13:22 20.0 °C 14.4 °C 1027.3 hPa East 3.2 km/h 6.4 km/h 70 % 0.0 mm
13:32 20.4 °C 14.5 °C 1027.0 hPa South 1.6 km/h 8.0 km/h 69 % 0.0 mm
13:42 20.8 °C 14.2 °C 1027.0 hPa Calm   6.4 km/h 66 % 0.0 mm
13:52 20.8 °C 14.2 °C 1027.0 hPa ENE 4.8 km/h 8.0 km/h 66 % 0.0 mm
13:57 20.9 °C 14.3 °C 1026.6 hPa South 1.6 km/h 8.0 km/h 66 % 0.0 mm
14:02 21.2 °C 14.4 °C 1026.6 hPa SE 3.2 km/h 8.0 km/h 65 % 0.0 mm
14:12 21.6 °C 14.3 °C 1026.6 hPa East 6.4 km/h 8.0 km/h 63 % 0.0 mm
14:17 21.6 °C 14.5 °C 1026.6 hPa East 3.2 km/h 8.0 km/h 64 % 0.0 mm
14:22 21.6 °C 14.7 °C 1026.6 hPa ENE 4.8 km/h 8.0 km/h 65 % 0.0 mm
Meteo18
Compliments of Weather Underground - 4 mb

Script developed by  Jim McMurry - jmcmurry@mwt.net Adapted for the template by  Wim van der Kuil - Leuven-Template.eu

You find our weather info also at:

European Weather Network

Weather Underground

Equipment we use:

Weather-station
Davis Vue

Weather-program
Meteohub

Weather-server
Raspberry PI 2 B+

Provider
1 and 1

Davis Vue

Meteohub

Raspberry PI 2 B+

1 and 1